Time;durP1;ratioP1;P1;durP2;ratioP2;P2;SDS_P1;SDS_P2;PMS_P1;PMS_P2;Temp;Humidity;BMP_temperature;BMP_pressure;BME280_temperature;BME280_humidity;BME280_pressure;Samples;Min_cycle;Max_cycle;Signal;HPM_P1;HPM_P2
2021/03/15 00:01:11;;;;;;;10.73;3.45;;;4.80;99.80;;;;;;6149569;23;20210;-86
2021/03/15 00:03:40;;;;;;;7.03;3.20;;;4.80;99.80;;;;;;6164820;23;20229;-85
2021/03/15 00:06:07;;;;;;;11.55;3.85;;;4.90;99.80;;;;;;6178695;23;20207;-85
2021/03/15 00:08:35;;;;;;;8.55;3.90;;;4.80;99.80;;;;;;6180287;23;20208;-85
2021/03/15 00:11:03;;;;;;;6.07;3.75;;;4.80;99.80;;;;;;6174008;23;20227;-86
2021/03/15 00:13:30;;;;;;;3.90;2.97;;;4.90;99.80;;;;;;6163565;23;20591;-85
2021/03/15 00:15:58;;;;;;;6.03;3.22;;;4.80;99.80;;;;;;6140001;23;20283;-85
2021/03/15 00:18:27;;;;;;;3.97;3.30;;;4.90;99.80;;;;;;6172614;23;20211;-85
2021/03/15 00:20:54;;;;;;;3.45;2.90;;;4.90;99.80;;;;;;6180228;23;20271;-86
2021/03/15 00:23:22;;;;;;;5.07;2.67;;;4.80;99.80;;;;;;6152100;23;20309;-85
2021/03/15 00:25:50;;;;;;;2.90;2.70;;;4.80;99.80;;;;;;6173152;23;20204;-85
2021/03/15 00:28:17;;;;;;;5.95;3.08;;;4.80;99.80;;;;;;6177380;23;20208;-85
2021/03/15 00:30:45;;;;;;;5.13;3.03;;;4.80;99.80;;;;;;6157336;23;20201;-85
2021/03/15 00:33:11;;;;;;;7.47;3.28;;;4.80;99.80;;;;;;6147484;23;20200;-85
2021/03/15 00:35:39;;;;;;;5.60;3.40;;;4.80;99.80;;;;;;6186473;23;20181;-85
2021/03/15 00:38:06;;;;;;;5.97;3.25;;;4.80;99.80;;;;;;6186354;23;20506;-86
2021/03/15 00:40:33;;;;;;;6.32;3.30;;;4.90;99.80;;;;;;6186296;23;20177;-86
2021/03/15 00:43:00;;;;;;;6.32;3.45;;;4.80;99.80;;;;;;6189755;23;20196;-86
2021/03/15 00:45:28;;;;;;;11.05;3.78;;;4.80;99.80;;;;;;6189466;23;20199;-86
2021/03/15 00:47:55;;;;;;;3.55;3.25;;;4.80;99.80;;;;;;6190225;23;20287;-86
2021/03/15 00:50:28;;;;;;;5.95;3.72;;;4.80;99.80;;;;;;6189606;23;20173;-87
2021/03/15 00:52:56;;;;;;;7.65;3.60;;;4.80;99.80;;;;;;6189864;23;20281;-87
2021/03/15 00:55:24;;;;;;;4.70;3.80;;;4.80;99.80;;;;;;6190615;23;20171;-86
2021/03/15 00:57:51;;;;;;;3.78;3.40;;;4.80;99.80;;;;;;6191564;23;20220;-86
2021/03/15 01:00:22;;;;;;;7.10;3.50;;;4.70;99.80;;;;;;6189719;23;20222;-86
2021/03/15 01:02:50;;;;;;;7.15;3.90;;;4.70;99.80;;;;;;6189880;23;20205;-85
2021/03/15 01:05:21;;;;;;;4.63;3.65;;;4.70;99.80;;;;;;6189360;23;20278;-86
2021/03/15 01:07:48;;;;;;;8.73;3.88;;;4.60;99.80;;;;;;6189859;23;20173;-85
2021/03/15 01:10:16;;;;;;;4.35;2.90;;;4.70;99.80;;;;;;6189353;23;20279;-86
2021/03/15 01:12:43;;;;;;;8.77;3.53;;;4.50;99.80;;;;;;6190029;23;20220;-86
2021/03/15 01:15:12;;;;;;;5.35;3.20;;;4.50;99.80;;;;;;6189944;23;20247;-85
2021/03/15 01:17:39;;;;;;;4.60;2.80;;;4.40;99.80;;;;;;6189002;23;20167;-85
2021/03/15 01:20:09;;;;;;;4.70;2.90;;;4.50;99.80;;;;;;6188430;23;20180;-86
2021/03/15 01:22:36;;;;;;;3.47;2.75;;;4.50;99.80;;;;;;6189944;23;20238;-85
2021/03/15 01:25:04;;;;;;;5.30;2.83;;;4.40;99.80;;;;;;6189156;23;20227;-85
2021/03/15 01:27:31;;;;;;;5.32;3.20;;;4.40;99.80;;;;;;6189288;23;20176;-85
2021/03/15 01:29:58;;;;;;;5.75;2.72;;;4.40;99.80;;;;;;6189150;23;20520;-85
2021/03/15 01:32:26;;;;;;;7.00;4.70;;;4.30;99.80;;;;;;6190088;23;20296;-85
2021/03/15 01:34:53;;;;;;;9.30;3.63;;;4.20;99.80;;;;;;6190664;23;20501;-85
2021/03/15 01:37:21;;;;;;;4.30;2.80;;;4.20;99.80;;;;;;6190153;23;20247;-85
2021/03/15 01:39:48;;;;;;;4.10;3.17;;;4.20;99.80;;;;;;6189769;23;20167;-85
2021/03/15 01:42:15;;;;;;;4.47;3.22;;;4.00;99.80;;;;;;6190137;23;20203;-85
2021/03/15 01:44:42;;;;;;;5.30;3.25;;;4.00;99.80;;;;;;6190799;23;20198;-85
2021/03/15 01:47:09;;;;;;;3.97;2.95;;;3.90;99.80;;;;;;6150805;23;20234;-86
2021/03/15 01:49:36;;;;;;;7.65;3.88;;;3.90;99.80;;;;;;6185269;23;20242;-86
2021/03/15 01:52:04;;;;;;;9.15;4.05;;;3.90;99.80;;;;;;6187335;23;20659;-85
2021/03/15 01:54:32;;;;;;;3.53;3.22;;;3.90;99.80;;;;;;6186069;23;20224;-85
2021/03/15 01:56:59;;;;;;;6.63;3.25;;;3.90;99.80;;;;;;6184314;23;20200;-85
2021/03/15 01:59:29;;;;;;;9.57;3.80;;;3.90;99.80;;;;;;6183197;23;20206;-86
2021/03/15 02:01:56;;;;;;;5.80;3.53;;;3.90;99.80;;;;;;6175222;23;20285;-84
2021/03/15 02:04:26;;;;;;;4.28;3.88;;;3.90;99.80;;;;;;6167959;23;20283;-85
2021/03/15 02:06:54;;;;;;;4.03;3.20;;;3.90;99.80;;;;;;6170064;23;20207;-85
2021/03/15 02:09:21;;;;;;;7.65;3.60;;;4.00;99.80;;;;;;6156475;23;20205;-85
2021/03/15 02:12:05;;;;;;;7.45;2.97;;;4.00;99.80;;;;;;6156669;23;20202;-85
2021/03/15 02:14:44;;;;;;;6.15;3.53;;;4.00;99.80;;;;;;6166629;23;20203;-85
2021/03/15 02:17:17;;;;;;;4.28;3.60;;;4.00;99.80;;;;;;6171055;23;20222;-85
2021/03/15 02:20:10;;;;;;;7.65;3.92;;;4.10;99.80;;;;;;6180675;23;20205;-86
2021/03/15 02:22:51;;;;;;;7.38;3.58;;;4.10;99.80;;;;;;6174661;23;20202;-85
2021/03/15 02:26:15;;;;;;;8.07;4.30;;;4.20;99.80;;;;;;6179634;23;20225;-85
2021/03/15 02:29:23;;;;;;;6.03;3.70;;;4.20;99.80;;;;;;6192209;23;20201;-85
2021/03/15 02:32:21;;;;;;;5.93;3.85;;;4.20;99.80;;;;;;6199002;23;20219;-85
2021/03/15 02:35:05;;;;;;;7.43;3.90;;;4.20;99.80;;;;;;6167803;23;20803;-85
2021/03/15 02:37:54;;;;;;;6.30;4.57;;;4.20;99.80;;;;;;6195847;23;20217;-84
2021/03/15 02:40:27;;;;;;;7.68;4.75;;;4.30;99.80;;;;;;6197233;23;20233;-85
2021/03/15 02:42:55;;;;;;;6.60;3.97;;;4.30;99.80;;;;;;6196186;23;20214;-86
2021/03/15 02:45:23;;;;;;;6.25;3.83;;;4.40;99.80;;;;;;6196245;23;20205;-86
2021/03/15 02:47:52;;;;;;;9.27;3.90;;;4.40;99.80;;;;;;6211633;23;20230;-85
2021/03/15 02:50:23;;;;;;;4.53;3.67;;;4.40;99.80;;;;;;6213089;23;20300;-85
2021/03/15 02:52:53;;;;;;;9.00;4.82;;;4.40;99.80;;;;;;6213217;23;20233;-86
2021/03/15 02:55:27;;;;;;;16.02;5.25;;;4.40;99.80;;;;;;6215006;23;20214;-85
2021/03/15 02:57:57;;;;;;;7.53;4.15;;;4.40;99.80;;;;;;6173490;23;20287;-85
2021/03/15 03:00:25;;;;;;;6.45;4.47;;;4.40;99.80;;;;;;6155700;23;20252;-85
2021/03/15 03:02:54;;;;;;;5.57;3.60;;;4.50;99.80;;;;;;6187290;23;20666;-85
2021/03/15 03:05:23;;;;;;;7.22;4.40;;;4.50;99.80;;;;;;6191705;23;20563;-85
2021/03/15 03:08:00;;;;;;;7.25;4.05;;;4.50;99.80;;;;;;6189445;23;20162;-85
2021/03/15 03:10:29;;;;;;;9.05;3.78;;;4.60;99.80;;;;;;6188648;23;20174;-85
2021/03/15 03:12:58;;;;;;;14.45;5.13;;;4.60;99.80;;;;;;6190544;23;20222;-85
2021/03/15 03:15:29;;;;;;;9.30;5.05;;;4.60;99.80;;;;;;6152009;23;20233;-85
2021/03/15 03:18:00;;;;;;;6.20;3.92;;;4.60;99.80;;;;;;6172553;23;20209;-85
2021/03/15 03:20:29;;;;;;;9.23;4.82;;;4.60;99.80;;;;;;6173922;23;20237;-85
2021/03/15 03:22:59;;;;;;;7.60;4.47;;;4.60;99.80;;;;;;6177262;23;20224;-85
2021/03/15 03:25:28;;;;;;;9.30;4.65;;;4.60;99.80;;;;;;6181667;23;20279;-85
2021/03/15 03:27:56;;;;;;;9.60;4.82;;;4.60;99.80;;;;;;6154605;23;20719;-85
2021/03/15 03:30:26;;;;;;;6.57;4.72;;;4.60;99.80;;;;;;6162117;23;20266;-85
2021/03/15 03:32:54;;;;;;;7.60;4.68;;;4.60;99.80;;;;;;6180562;23;20208;-84
2021/03/15 03:35:22;;;;;;;6.20;4.60;;;4.60;99.80;;;;;;6180559;23;20268;-84
2021/03/15 03:37:50;;;;;;;10.88;4.90;;;4.60;99.80;;;;;;6155380;23;20206;-85
2021/03/15 03:40:17;;;;;;;6.72;4.50;;;4.50;99.80;;;;;;6151868;23;20202;-86
2021/03/15 03:42:45;;;;;;;9.93;4.43;;;4.50;99.80;;;;;;6155547;23;20235;-86
2021/03/15 03:45:14;;;;;;;10.65;5.03;;;4.50;99.80;;;;;;6159633;23;20271;-87
2021/03/15 03:47:42;;;;;;;7.65;4.70;;;4.50;99.80;;;;;;6161710;23;20271;-85
2021/03/15 03:50:12;;;;;;;6.93;4.43;;;4.50;99.80;;;;;;6161472;23;20240;-86
2021/03/15 03:52:44;;;;;;;9.77;4.68;;;4.50;99.80;;;;;;6160876;23;20214;-85
2021/03/15 03:55:16;;;;;;;7.70;5.07;;;4.50;99.80;;;;;;6170311;23;20214;-85
2021/03/15 03:57:46;;;;;;;9.13;5.45;;;4.50;99.80;;;;;;6152590;23;20210;-86
2021/03/15 04:00:16;;;;;;;9.70;4.53;;;4.50;99.80;;;;;;6150029;23;20232;-84
2021/03/15 04:02:45;;;;;;;9.63;4.20;;;4.50;99.80;;;;;;6164166;23;20229;-85
2021/03/15 04:05:18;;;;;;;8.02;5.40;;;4.40;99.80;;;;;;6182028;23;20207;-85
2021/03/15 04:07:49;;;;;;;12.52;6.15;;;4.40;99.80;;;;;;6181003;23;20271;-86
2021/03/15 04:10:17;;;;;;;10.55;6.35;;;4.30;99.80;;;;;;6190977;23;20253;-85
2021/03/15 04:12:46;;;;;;;10.40;6.10;;;4.30;99.80;;;;;;6187446;23;20566;-86
2021/03/15 04:15:17;;;;;;;11.32;6.65;;;4.30;99.80;;;;;;6182584;23;20278;-87
2021/03/15 04:17:45;;;;;;;6.28;5.68;;;4.30;99.80;;;;;;6209517;23;20208;-85
2021/03/15 04:20:17;;;;;;;8.05;5.55;;;4.30;99.80;;;;;;6184995;23;20707;-85
2021/03/15 04:22:47;;;;;;;10.57;6.20;;;4.30;99.80;;;;;;6174221;23;20601;-86
2021/03/15 04:25:17;;;;;;;9.93;5.40;;;4.30;99.80;;;;;;6203649;23;20707;-85
2021/03/15 04:27:44;;;;;;;8.40;4.88;;;4.30;99.80;;;;;;6205259;23;20229;-85
2021/03/15 04:30:13;;;;;;;11.30;6.45;;;4.30;99.80;;;;;;6158094;23;20207;-85
2021/03/15 04:32:41;;;;;;;14.75;5.78;;;4.30;99.80;;;;;;6168819;23;20209;-84
2021/03/15 04:35:10;;;;;;;8.85;5.20;;;4.30;99.80;;;;;;6177100;23;20199;-85
2021/03/15 04:37:38;;;;;;;10.13;5.43;;;4.30;99.80;;;;;;6180118;23;20306;-86
2021/03/15 04:40:07;;;;;;;9.40;4.75;;;4.30;99.80;;;;;;6173215;23;20547;-85
2021/03/15 04:42:35;;;;;;;10.57;5.25;;;4.30;99.80;;;;;;6142391;23;20247;-85
2021/03/15 04:45:03;;;;;;;7.05;4.80;;;4.30;99.80;;;;;;6170756;23;20594;-84
2021/03/15 04:47:31;;;;;;;18.67;6.38;;;4.20;99.80;;;;;;6190700;23;20204;-85
2021/03/15 04:49:58;;;;;;;9.95;5.55;;;4.20;99.80;;;;;;6205949;23;20641;-85
2021/03/15 04:52:27;;;;;;;8.23;4.90;;;4.10;99.80;;;;;;6205690;23;20284;-84
2021/03/15 04:54:54;;;;;;;14.35;5.88;;;4.10;99.80;;;;;;6193424;23;20688;-85
2021/03/15 04:57:24;;;;;;;8.73;5.47;;;4.10;99.80;;;;;;6174603;23;20258;-84
2021/03/15 04:59:52;;;;;;;9.13;6.20;;;4.10;99.80;;;;;;6186824;23;20333;-84
2021/03/15 05:02:22;;;;;;;16.60;7.88;;;4.10;99.80;;;;;;6183529;23;20212;-87
2021/03/15 05:04:50;;;;;;;8.90;6.03;;;4.10;99.80;;;;;;6176703;23;20210;-85
2021/03/15 05:07:19;;;;;;;17.38;7.78;;;4.20;99.80;;;;;;6173794;23;20214;-86
2021/03/15 05:09:51;;;;;;;12.93;6.40;;;4.10;99.80;;;;;;6175508;23;20268;-85
2021/03/15 05:12:19;;;;;;;12.27;7.07;;;4.10;99.80;;;;;;6166933;23;20731;-86
2021/03/15 05:14:46;;;;;;;12.25;7.50;;;4.10;99.80;;;;;;6152530;23;20281;-87
2021/03/15 05:17:14;;;;;;;12.40;8.02;;;4.20;99.80;;;;;;6171037;23;20602;-86
2021/03/15 05:19:42;;;;;;;12.45;7.07;;;4.20;99.80;;;;;;6181338;23;20671;-86
2021/03/15 05:22:12;;;;;;;17.15;8.23;;;4.10;99.80;;;;;;6172758;23;20573;-86
2021/03/15 05:24:41;;;;;;;11.52;7.50;;;4.20;99.80;;;;;;6148685;23;20305;-85
2021/03/15 05:27:10;;;;;;;15.43;7.45;;;4.20;99.80;;;;;;6158289;23;20276;-88
2021/03/15 05:29:40;;;;;;;16.13;6.65;;;4.20;99.80;;;;;;6173295;23;20286;-86
2021/03/15 05:32:08;;;;;;;13.45;8.32;;;4.20;99.80;;;;;;6160485;23;20246;-86
2021/03/15 05:34:39;;;;;;;12.52;7.22;;;4.10;99.80;;;;;;6168753;23;20571;-86
2021/03/15 05:37:09;;;;;;;16.65;8.18;;;4.20;99.80;;;;;;6151486;23;20936;-84
2021/03/15 05:39:36;;;;;;;12.10;7.35;;;4.20;99.80;;;;;;6157586;23;20204;-84
2021/03/15 05:42:23;;;;;;;13.68;7.57;;;4.20;99.80;;;;;;6164587;23;20225;-86
2021/03/15 05:45:03;;;;;;;16.77;7.53;;;4.20;99.80;;;;;;6161153;23;20310;-86
2021/03/15 05:47:57;;;;;;;12.30;7.20;;;4.20;99.80;;;;;;6176532;23;20723;-85
2021/03/15 05:51:15;;;;;;;12.88;7.63;;;4.20;99.80;;;;;;6181358;23;20202;-85
2021/03/15 05:54:01;;;;;;;14.88;8.05;;;4.20;99.80;;;;;;6132828;23;20201;-86
2021/03/15 05:56:38;;;;;;;16.08;7.75;;;4.30;99.80;;;;;;6194910;23;20204;-85
2021/03/15 05:59:21;;;;;;;16.67;6.82;;;4.30;99.80;;;;;;6199049;23;20225;-86
2021/03/15 06:02:12;;;;;;;14.80;7.68;;;4.30;99.80;;;;;;6195283;23;20204;-85
2021/03/15 06:04:59;;;;;;;15.10;7.53;;;4.30;99.80;;;;;;6158987;23;20245;-86
2021/03/15 06:07:29;;;;;;;17.25;9.10;;;4.40;99.80;;;;;;6154375;23;20208;-86
2021/03/15 06:10:05;;;;;;;15.70;7.55;;;4.50;99.80;;;;;;6168476;23;20266;-86
2021/03/15 06:12:38;;;;;;;13.40;8.23;;;4.40;99.80;;;;;;6160116;23;20288;-85
2021/03/15 06:15:06;;;;;;;14.73;8.32;;;4.50;99.80;;;;;;6151689;23;20278;-85
2021/03/15 06:17:35;;;;;;;15.57;7.13;;;4.60;99.80;;;;;;6179318;23;20200;-85
2021/03/15 06:20:05;;;;;;;24.08;9.23;;;4.60;99.80;;;;;;6179116;23;20204;-85
2021/03/15 06:22:33;;;;;;;14.15;7.72;;;4.60;99.80;;;;;;6179206;23;20279;-86
2021/03/15 06:25:02;;;;;;;15.50;7.18;;;4.70;99.80;;;;;;6173138;23;20208;-87
2021/03/15 06:27:30;;;;;;;13.63;7.28;;;4.70;99.80;;;;;;6148744;23;20199;-85
2021/03/15 06:29:57;;;;;;;15.15;6.65;;;4.70;99.80;;;;;;6166925;23;20207;-87
2021/03/15 06:32:28;;;;;;;13.73;6.05;;;4.80;99.80;;;;;;6173061;23;20208;-87
2021/03/15 06:34:56;;;;;;;10.35;6.35;;;4.80;99.80;;;;;;6149656;23;21211;-85
2021/03/15 06:37:23;;;;;;;18.75;7.30;;;4.90;99.80;;;;;;6149614;23;20199;-85
2021/03/15 06:39:51;;;;;;;11.35;7.10;;;4.90;99.80;;;;;;6149762;23;20299;-85
2021/03/15 06:42:20;;;;;;;10.45;6.75;;;4.80;99.80;;;;;;6152858;23;20228;-86
2021/03/15 06:44:47;;;;;;;9.80;6.45;;;4.90;99.80;;;;;;6166395;23;20268;-84
2021/03/15 06:47:15;;;;;;;9.88;6.32;;;4.90;99.80;;;;;;6174120;23;20208;-85
2021/03/15 06:49:42;;;;;;;12.27;7.05;;;5.00;99.80;;;;;;6175191;23;20211;-85
2021/03/15 06:52:10;;;;;;;12.57;7.25;;;4.90;99.80;;;;;;6179983;23;20211;-86
2021/03/15 06:54:37;;;;;;;14.52;6.18;;;4.90;99.80;;;;;;6180092;23;20209;-85
2021/03/15 06:57:21;;;;;;;11.50;7.00;;;4.90;99.80;;;;;;6149886;23;20208;-83
2021/03/15 06:59:52;;;;;;;7.40;5.00;;;5.00;99.80;;;;;;6188296;23;20228;-84
2021/03/15 07:02:24;;;;;;;10.68;6.70;;;5.00;99.80;;;;;;6190683;23;20231;-85
2021/03/15 07:04:52;;;;;;;7.68;5.60;;;5.10;99.80;;;;;;6207543;23;20211;-84
2021/03/15 07:07:27;;;;;;;9.90;5.65;;;5.10;99.80;;;;;;6192180;23;20651;-85
2021/03/15 07:09:57;;;;;;;9.02;4.93;;;5.20;99.80;;;;;;6199755;23;20202;-85
2021/03/15 07:12:26;;;;;;;7.32;4.80;;;5.40;99.80;;;;;;6167327;23;20221;-84
2021/03/15 07:15:06;;;;;;;8.90;5.75;;;5.40;99.80;;;;;;6159279;23;20549;-86
2021/03/15 07:17:33;;;;;;;8.05;4.90;;;5.40;99.80;;;;;;6168884;23;20212;-85
2021/03/15 07:20:00;;;;;;;7.00;4.80;;;5.50;99.80;;;;;;6158532;23;20251;-83
2021/03/15 07:22:29;;;;;;;6.88;4.93;;;5.60;99.80;;;;;;6160060;23;20212;-85
2021/03/15 07:25:04;;;;;;;10.02;4.93;;;5.70;99.80;;;;;;6168520;23;20252;-86
2021/03/15 07:27:33;;;;;;;9.52;5.20;;;5.70;99.80;;;;;;6149056;23;20202;-83
2021/03/15 07:30:28;;;;;;;6.45;5.13;;;5.60;99.80;;;;;;6161783;23;20220;-87
2021/03/15 07:32:55;;;;;;;8.85;4.88;;;5.60;99.80;;;;;;6182549;23;20216;-85
2021/03/15 07:35:24;;;;;;;8.75;5.35;;;5.50;99.80;;;;;;6181845;23;20695;-87
2021/03/15 07:37:51;;;;;;;8.07;5.40;;;5.60;99.80;;;;;;6156228;23;20296;-82
2021/03/15 07:40:37;;;;;;;6.47;4.80;;;5.50;99.80;;;;;;6164091;23;20237;-85
2021/03/15 07:43:08;;;;;;;7.40;6.22;;;5.60;99.80;;;;;;6186583;23;20250;-85
2021/03/15 07:45:38;;;;;;;6.53;5.10;;;5.60;99.80;;;;;;6165905;23;20204;-85
2021/03/15 07:48:13;;;;;;;6.35;4.07;;;5.60;99.80;;;;;;6165009;23;20211;-84
2021/03/15 07:50:41;;;;;;;6.85;4.85;;;5.50;99.80;;;;;;6140409;23;20206;-86
2021/03/15 07:53:08;;;;;;;9.02;4.90;;;5.40;99.80;;;;;;6154488;23;20206;-85
2021/03/15 07:55:37;;;;;;;6.93;5.32;;;5.40;99.80;;;;;;6174547;23;20643;-84
2021/03/15 07:58:29;;;;;;;5.63;4.15;;;5.40;99.80;;;;;;6158319;23;20230;-85
2021/03/15 08:00:57;;;;;;;6.40;4.50;;;5.40;99.80;;;;;;6149873;23;20802;-85
2021/03/15 08:03:25;;;;;;;7.22;4.97;;;5.50;99.80;;;;;;6180488;23;20591;-87
2021/03/15 08:05:54;;;;;;;11.80;5.28;;;5.50;99.80;;;;;;6177136;23;20270;-84
2021/03/15 08:08:21;;;;;;;6.53;4.55;;;5.60;99.80;;;;;;6167852;23;20756;-85
2021/03/15 08:10:49;;;;;;;6.20;4.30;;;5.50;99.80;;;;;;6168628;23;20279;-85
2021/03/15 08:13:21;;;;;;;11.13;5.00;;;5.60;99.80;;;;;;6152489;23;20210;-85
2021/03/15 08:15:52;;;;;;;9.40;5.20;;;5.60;99.80;;;;;;6194596;23;20214;-85
2021/03/15 08:18:23;;;;;;;7.15;5.22;;;5.70;99.80;;;;;;6210490;23;20279;-85
2021/03/15 08:20:56;;;;;;;9.57;6.18;;;5.80;99.80;;;;;;6206273;23;20214;-84
2021/03/15 08:23:24;;;;;;;7.20;4.90;;;5.80;99.80;;;;;;6194201;23;20203;-85
2021/03/15 08:25:59;;;;;;;7.85;5.15;;;5.80;99.80;;;;;;6198351;23;20278;-84
2021/03/15 08:28:27;;;;;;;7.97;4.65;;;5.60;99.80;;;;;;6197941;23;20238;-83
2021/03/15 08:30:56;;;;;;;6.32;4.43;;;5.60;99.80;;;;;;6200636;23;20686;-87
2021/03/15 08:33:24;;;;;;;9.43;4.35;;;5.50;99.80;;;;;;6211895;23;20208;-87
2021/03/15 08:35:54;;;;;;;6.13;4.43;;;5.60;99.80;;;;;;6211962;23;20608;-84
2021/03/15 08:38:31;;;;;;;6.85;4.72;;;5.60;99.80;;;;;;6211827;23;20235;-83
2021/03/15 08:41:01;;;;;;;7.95;4.32;;;5.60;99.80;;;;;;6199727;23;20225;-85
2021/03/15 08:43:42;;;;;;;5.60;4.40;;;5.50;99.80;;;;;;6189097;23;20695;-87
2021/03/15 08:46:16;;;;;;;7.00;4.20;;;5.60;99.80;;;;;;6188267;23;20617;-85
2021/03/15 08:49:07;;;;;;;3.92;3.53;;;5.70;99.80;;;;;;6211348;23;20288;-85
2021/03/15 08:51:48;;;;;;;4.00;3.70;;;5.90;99.80;;;;;;6186150;23;20255;-86
2021/03/15 08:54:18;;;;;;;3.85;2.22;;;6.30;99.80;;;;;;6191795;23;20199;-84
2021/03/15 08:56:48;;;;;;;1.70;1.60;;;6.50;99.80;;;;;;6181252;23;20211;-85
2021/03/15 08:59:29;;;;;;;1.95;1.20;;;6.60;99.80;;;;;;6190494;23;20198;-85
2021/03/15 09:01:58;;;;;;;1.10;0.93;;;6.60;99.80;;;;;;6175256;23;20210;-86
2021/03/15 09:04:40;;;;;;;1.05;0.90;;;6.60;99.80;;;;;;6195414;23;20253;-85
2021/03/15 09:07:46;;;;;;;1.15;1.05;;;6.60;99.80;;;;;;6155544;23;20264;-85
2021/03/15 09:10:44;;;;;;;1.92;1.08;;;6.80;99.80;;;;;;6166006;23;20633;-86
2021/03/15 09:13:26;;;;;;;1.23;1.13;;;7.10;99.80;;;;;;6134218;23;21201;-85
2021/03/15 09:16:00;;;;;;;1.27;1.17;;;7.40;99.80;;;;;;6175671;23;20204;-86
2021/03/15 09:18:55;;;;;;;1.10;1.00;;;7.50;99.80;;;;;;6183494;23;20200;-86
2021/03/15 09:21:49;;;;;;;2.70;1.10;;;7.70;99.80;;;;;;6176239;23;20254;-86
2021/03/15 09:24:55;;;;;;;1.17;1.07;;;7.80;99.80;;;;;;6167588;23;20260;-84
2021/03/15 09:27:37;;;;;;;1.30;1.20;;;7.60;99.80;;;;;;6155031;23;20519;-86
2021/03/15 09:30:13;;;;;;;1.77;1.30;;;7.70;99.80;;;;;;6165045;23;20495;-86
2021/03/15 09:32:42;;;;;;;2.70;1.53;;;7.90;99.80;;;;;;6170903;23;20436;-86
2021/03/15 09:35:21;;;;;;;1.30;1.05;;;8.20;99.80;;;;;;6152261;23;20476;-85
2021/03/15 09:37:51;;;;;;;1.20;1.08;;;8.50;99.80;;;;;;6142178;23;20208;-84
2021/03/15 09:40:20;;;;;;;1.98;1.15;;;8.40;99.80;;;;;;6170099;23;20291;-85
2021/03/15 09:42:48;;;;;;;1.40;1.30;;;8.10;99.80;;;;;;6164379;23;20223;-85
2021/03/15 09:45:34;;;;;;;1.30;1.20;;;7.90;99.80;;;;;;6163471;23;20486;-83
2021/03/15 09:48:04;;;;;;;1.40;1.30;;;7.90;99.80;;;;;;6179755;23;20924;-84
2021/03/15 09:50:33;;;;;;;1.20;1.10;;;8.20;99.80;;;;;;6180428;23;20895;-85
2021/03/15 09:53:11;;;;;;;1.60;1.40;;;8.30;99.80;;;;;;6178536;23;20460;-85
2021/03/15 09:55:38;;;;;;;1.40;1.30;;;8.50;99.80;;;;;;6146423;23;20437;-85
2021/03/15 09:58:07;;;;;;;1.60;1.50;;;8.50;99.80;;;;;;6158443;23;20435;-86
2021/03/15 10:00:34;;;;;;;2.13;1.33;;;8.50;99.80;;;;;;6148033;23;20555;-86
2021/03/15 10:03:04;;;;;;;3.05;2.13;;;8.50;99.80;;;;;;6159903;23;20467;-85
2021/03/15 10:05:31;;;;;;;1.60;1.50;;;8.60;99.80;;;;;;6161579;23;20674;-84
2021/03/15 10:07:59;;;;;;;1.63;1.40;;;8.70;99.80;;;;;;6157564;23;20456;-85
2021/03/15 10:10:27;;;;;;;1.52;1.42;;;8.50;99.80;;;;;;6189702;23;20519;-85
2021/03/15 10:13:02;;;;;;;2.23;1.60;;;8.40;99.80;;;;;;6196989;23;20208;-85
2021/03/15 10:15:29;;;;;;;1.50;1.40;;;8.50;99.80;;;;;;6171625;23;20819;-87
2021/03/15 10:17:56;;;;;;;2.28;2.08;;;8.70;99.80;;;;;;6204945;23;20446;-86
2021/03/15 10:20:35;;;;;;;2.70;1.45;;;9.00;99.80;;;;;;6175280;23;20201;-86
2021/03/15 10:23:13;;;;;;;1.50;1.40;;;9.30;99.80;;;;;;6177892;23;20903;-86
2021/03/15 10:25:52;;;;;;;1.70;1.60;;;9.70;99.60;;;;;;6165321;23;20201;-85
2021/03/15 10:28:23;;;;;;;3.87;2.53;;;9.80;97.20;;;;;;6141869;23;20516;-85
2021/03/15 10:30:54;;;;;;;1.63;1.53;;;9.80;98.60;;;;;;6139009;23;20575;-87
2021/03/15 10:33:22;;;;;;;2.40;1.50;;;9.80;98.60;;;;;;6175147;23;20443;-85
2021/03/15 10:35:52;;;;;;;1.70;1.60;;;9.90;96.80;;;;;;6171344;23;20463;-86
2021/03/15 10:38:21;;;;;;;2.57;1.90;;;10.00;97.60;;;;;;6179195;23;20428;-86
2021/03/15 10:40:51;;;;;;;1.60;1.50;;;10.20;98.20;;;;;;6161804;23;20452;-85
2021/03/15 10:43:19;;;;;;;3.00;1.80;;;10.10;96.10;;;;;;6178663;23;20440;-84
2021/03/15 10:45:47;;;;;;;1.90;1.80;;;10.00;95.10;;;;;;6168300;23;20463;-84
2021/03/15 10:48:14;;;;;;;3.03;1.77;;;10.10;96.20;;;;;;6177423;23;20815;-86
2021/03/15 10:50:45;;;;;;;3.10;1.77;;;10.00;96.60;;;;;;6177776;23;20440;-85
2021/03/15 10:53:15;;;;;;;2.30;1.50;;;9.70;96.60;;;;;;6173780;23;20487;-85
2021/03/15 10:55:42;;;;;;;3.67;1.93;;;9.90;96.70;;;;;;6177732;23;20456;-86
2021/03/15 10:58:11;;;;;;;2.33;1.70;;;10.10;95.80;;;;;;6149564;23;20443;-86
2021/03/15 11:00:40;;;;;;;3.53;1.60;;;10.60;95.10;;;;;;6130142;23;20483;-84
2021/03/15 11:03:08;;;;;;;2.20;1.60;;;11.10;92.00;;;;;;6174398;23;20800;-85
2021/03/15 11:05:36;;;;;;;1.60;1.40;;;11.40;88.50;;;;;;6179462;23;20433;-85
2021/03/15 11:08:03;;;;;;;2.40;1.47;;;11.50;88.00;;;;;;6163113;23;20532;-81
2021/03/15 11:10:33;;;;;;;3.50;1.87;;;11.50;87.00;;;;;;6150486;23;20920;-85
2021/03/15 11:13:13;;;;;;;2.97;1.90;;;11.40;87.50;;;;;;6154927;23;20982;-85
2021/03/15 11:15:40;;;;;;;2.37;1.40;;;11.40;88.90;;;;;;6143763;23;20436;-85
2021/03/15 11:18:10;;;;;;;1.97;1.60;;;11.40;87.60;;;;;;6133902;23;20464;-84
2021/03/15 11:20:46;;;;;;;1.73;1.20;;;11.40;86.00;;;;;;6132159;23;20504;-84
2021/03/15 11:23:26;;;;;;;2.40;1.20;;;11.70;85.50;;;;;;6146443;23;20441;-85
2021/03/15 11:26:03;;;;;;;5.90;1.83;;;12.10;85.20;;;;;;6132889;23;21070;-86
2021/03/15 11:28:32;;;;;;;3.30;2.00;;;12.70;83.00;;;;;;6150618;23;20441;-87
2021/03/15 11:31:00;;;;;;;5.10;1.90;;;12.90;82.80;;;;;;6149304;23;20486;-86
2021/03/15 11:33:28;;;;;;;3.10;1.77;;;13.10;81.70;;;;;;6174844;23;20508;-86
2021/03/15 11:35:58;;;;;;;1.60;1.47;;;13.10;82.80;;;;;;6177201;23;20458;-87
2021/03/15 11:38:27;;;;;;;4.23;1.90;;;12.90;82.30;;;;;;6163908;23;20437;-85
2021/03/15 11:40:55;;;;;;;2.37;2.20;;;12.80;82.00;;;;;;6136476;23;20525;-83
2021/03/15 11:43:24;;;;;;;3.73;1.60;;;14.40;80.50;;;;;;6167422;23;20449;-85
2021/03/15 11:45:51;;;;;;;3.43;2.13;;;14.90;77.00;;;;;;6149372;23;21034;-86
2021/03/15 11:48:18;;;;;;;2.40;2.07;;;14.50;76.90;;;;;;6185904;23;20444;-85
2021/03/15 11:50:46;;;;;;;1.73;1.60;;;14.90;76.90;;;;;;6157342;23;20481;-85
2021/03/15 11:53:13;;;;;;;1.80;1.60;;;14.90;76.20;;;;;;6165885;23;20443;-85
2021/03/15 11:55:40;;;;;;;2.47;2.27;;;15.90;74.40;;;;;;6174857;23;21002;-87
2021/03/15 11:58:07;;;;;;;2.20;1.53;;;16.20;69.40;;;;;;6164915;23;20439;-86
2021/03/15 12:00:35;;;;;;;1.60;1.50;;;15.00;71.50;;;;;;6159770;23;21052;-85
2021/03/15 12:03:03;;;;;;;1.90;1.60;;;15.60;73.00;;;;;;6195806;23;20772;-85
2021/03/15 12:05:30;;;;;;;1.80;1.43;;;17.90;70.60;;;;;;6177610;23;20443;-86
2021/03/15 12:07:57;;;;;;;2.67;1.50;;;17.60;68.40;;;;;;6175186;23;20465;-87
2021/03/15 12:10:24;;;;;;;4.40;2.17;;;14.70;81.00;;;;;;6168006;23;20439;-86
2021/03/15 12:12:51;;;;;;;1.37;1.27;;;11.90;86.20;;;;;;6182365;23;20434;-86
2021/03/15 12:15:39;;;;;;;4.37;1.60;;;10.00;93.00;;;;;;6162786;23;20429;-86
2021/03/15 12:18:08;;;;;;;3.03;2.50;;;9.50;97.10;;;;;;6179872;23;20425;-86
2021/03/15 12:20:36;;;;;;;2.50;2.30;;;12.70;91.80;;;;;;6157333;23;20491;-86
2021/03/15 12:23:04;;;;;;;2.70;2.20;;;16.90;79.00;;;;;;6164315;23;20515;-85
2021/03/15 12:25:32;;;;;;;3.77;1.87;;;19.80;70.30;;;;;;6176135;23;21160;-85
2021/03/15 12:27:59;;;;;;;3.10;1.60;;;21.40;68.10;;;;;;6160765;23;20438;-85
2021/03/15 12:30:26;;;;;;;1.50;1.40;;;21.90;63.40;;;;;;6176051;23;20467;-85
2021/03/15 12:32:54;;;;;;;1.87;1.77;;;24.30;62.20;;;;;;6189250;23;20442;-86
2021/03/15 12:35:23;;;;;;;2.80;1.17;;;26.50;57.30;;;;;;6172138;23;20870;-86
2021/03/15 12:37:50;;;;;;;1.43;1.33;;;27.80;53.20;;;;;;6175409;23;20439;-85
2021/03/15 12:40:19;;;;;;;1.97;1.87;;;26.20;53.60;;;;;;6173777;23;20476;-86
2021/03/15 12:42:46;;;;;;;2.90;1.80;;;;;;;;;;6147800;23;21052;-85
2021/03/15 12:45:14;;;;;;;3.67;1.87;;;22.30;58.30;;;;;;6146391;23;20523;-85
2021/03/15 12:47:49;;;;;;;2.80;2.00;;;19.40;63.70;;;;;;6162141;23;20775;-86
2021/03/15 12:50:17;;;;;;;1.80;1.67;;;19.30;66.70;;;;;;6174894;23;20444;-87
2021/03/15 12:52:46;;;;;;;1.90;1.80;;;22.40;61.70;;;;;;6155348;23;20449;-86
2021/03/15 12:55:14;;;;;;;1.97;1.80;;;24.30;56.00;;;;;;6130259;23;20819;-86
2021/03/15 12:57:42;;;;;;;1.77;1.67;;;22.80;57.40;;;;;;6150283;23;21023;-86
2021/03/15 13:00:12;;;;;;;2.90;2.63;;;23.70;55.60;;;;;;6155182;23;20459;-86
2021/03/15 13:02:39;;;;;;;2.17;1.97;;;25.50;51.60;;;;;;6134729;23;20443;-87
2021/03/15 13:05:08;;;;;;;1.93;1.63;;;25.80;51.40;;;;;;6174182;23;20439;-86
2021/03/15 13:07:36;;;;;;;2.63;1.77;;;25.50;50.80;;;;;;6172508;23;20446;-86
2021/03/15 13:10:04;;;;;;;3.30;2.00;;;25.80;51.30;;;;;;6161020;23;20538;-86
2021/03/15 13:12:31;;;;;;;2.17;1.97;;;26.70;48.50;;;;;;6173684;23;20587;-86
2021/03/15 13:14:58;;;;;;;1.80;1.70;;;27.10;48.90;;;;;;6161064;23;20783;-86